createdAt,value
2018-03-02T00:01:30.558Z,13.87
2018-03-02T00:03:57.148Z,15.03
2018-03-02T00:06:23.767Z,14.53
2018-03-02T00:08:50.363Z,15.00
2018-03-02T00:11:16.969Z,15.20
2018-03-02T00:13:43.563Z,14.27
2018-03-02T00:16:10.156Z,15.90
2018-03-02T00:18:36.755Z,14.40
2018-03-02T00:21:03.356Z,14.93
2018-03-02T00:23:29.963Z,15.20
2018-03-02T00:25:56.556Z,15.30
2018-03-02T00:28:23.151Z,15.73
2018-03-02T00:30:49.751Z,14.23
2018-03-02T00:33:16.353Z,15.30
2018-03-02T00:35:42.968Z,15.60
2018-03-02T00:38:09.564Z,14.73
2018-03-02T00:40:36.173Z,16.30
2018-03-02T00:43:02.767Z,16.30
2018-03-02T00:45:29.374Z,15.30
2018-03-02T00:47:55.971Z,15.43
2018-03-02T00:50:22.563Z,15.50
2018-03-02T00:52:49.186Z,15.80
2018-03-02T00:55:15.789Z,14.20
2018-03-02T00:57:42.395Z,15.23
2018-03-02T01:00:08.980Z,15.20
2018-03-02T01:02:35.583Z,15.97
2018-03-02T01:05:02.180Z,15.40
2018-03-02T01:07:28.792Z,14.33
2018-03-02T01:09:55.387Z,16.30
2018-03-02T01:12:21.990Z,15.40
2018-03-02T01:14:48.587Z,15.20
2018-03-02T01:17:15.183Z,16.73
2018-03-02T01:19:41.784Z,15.10
2018-03-02T01:22:08.374Z,12.13
2018-03-02T01:24:34.983Z,15.50
2018-03-02T01:27:01.585Z,17.00
2018-03-02T01:29:28.183Z,16.10
2018-03-02T01:31:54.791Z,15.33
2018-03-02T01:34:21.458Z,15.20
2018-03-02T01:36:48.015Z,16.25
2018-03-02T01:39:14.810Z,15.10
2018-03-02T01:41:41.411Z,15.67
2018-03-02T01:44:08.007Z,17.37
2018-03-02T01:46:34.633Z,15.43
2018-03-02T01:49:01.216Z,16.53
2018-03-02T01:51:33.740Z,18.30
2018-03-02T01:54:00.353Z,15.02
2018-03-02T01:56:26.956Z,16.07
2018-03-02T01:58:53.567Z,15.85
2018-03-02T02:01:20.158Z,14.93
2018-03-02T02:03:46.755Z,16.50
2018-03-02T02:06:13.359Z,15.30
2018-03-02T02:08:40.017Z,16.83
2018-03-02T02:11:06.599Z,19.20
2018-03-02T02:13:33.201Z,16.57
2018-03-02T02:15:59.804Z,15.57
2018-03-02T02:18:26.420Z,17.50
2018-03-02T02:20:53.015Z,16.80
2018-03-02T02:23:19.619Z,17.83
2018-03-02T02:25:46.484Z,16.00
2018-03-02T02:28:13.075Z,16.67
2018-03-02T02:30:39.680Z,17.30
2018-03-02T02:33:06.291Z,16.05
2018-03-02T02:35:32.880Z,16.73
2018-03-02T02:37:59.498Z,17.70
2018-03-02T02:40:26.083Z,16.30
2018-03-02T02:42:52.685Z,16.60
2018-03-02T02:45:19.279Z,16.50
2018-03-02T02:47:45.887Z,17.17
2018-03-02T02:50:12.487Z,18.10
2018-03-02T02:52:39.083Z,16.70
2018-03-02T02:55:05.688Z,14.07
2018-03-02T02:57:32.274Z,14.93
2018-03-02T02:59:58.880Z,16.03
2018-03-02T03:02:25.482Z,17.77
2018-03-02T03:04:52.087Z,18.23
2018-03-02T03:07:18.688Z,15.80
2018-03-02T03:09:45.286Z,15.87
2018-03-02T03:12:11.880Z,17.03
2018-03-02T03:14:38.494Z,17.50
2018-03-02T03:17:05.115Z,17.33
2018-03-02T03:19:31.726Z,16.80
2018-03-02T03:21:58.336Z,16.60
2018-03-02T03:24:24.923Z,17.07
2018-03-02T03:26:51.536Z,17.30
2018-03-02T03:29:18.127Z,18.13
2018-03-02T03:31:44.728Z,19.20
2018-03-02T03:34:11.327Z,16.30
2018-03-02T03:36:37.926Z,17.43
2018-03-02T03:39:04.547Z,17.15
2018-03-02T03:41:31.144Z,16.83
2018-03-02T03:43:57.763Z,15.87
2018-03-02T03:46:24.344Z,19.17
2018-03-02T03:48:50.955Z,20.40
2018-03-02T03:51:17.555Z,16.50
2018-03-02T03:53:44.175Z,17.03
2018-03-02T03:56:10.767Z,17.73
2018-03-02T03:58:37.363Z,16.90
2018-03-02T04:01:03.969Z,15.97
2018-03-02T04:03:30.568Z,17.90
2018-03-02T04:05:57.168Z,17.07
2018-03-02T04:08:23.763Z,17.50
2018-03-02T04:10:50.368Z,17.53
2018-03-02T04:13:16.975Z,16.47
2018-03-02T04:15:43.823Z,17.37
2018-03-02T04:18:10.415Z,19.10
2018-03-02T04:20:37.007Z,16.93
2018-03-02T04:23:03.609Z,18.80
2018-03-02T04:25:30.202Z,18.17
2018-03-02T04:27:56.807Z,17.77
2018-03-02T04:30:23.407Z,16.53
2018-03-02T04:32:50.028Z,17.10
2018-03-02T04:35:16.635Z,17.45
2018-03-02T04:37:43.232Z,19.03
2018-03-02T04:40:09.855Z,18.67
2018-03-02T04:42:36.451Z,19.13
2018-03-02T04:45:03.058Z,17.73
2018-03-02T04:47:29.647Z,18.93
2018-03-02T04:49:56.259Z,17.90
2018-03-02T04:52:22.859Z,18.50
2018-03-02T04:54:49.463Z,17.83
2018-03-02T04:57:16.059Z,17.40
2018-03-02T04:59:42.653Z,19.07
2018-03-02T05:02:09.264Z,17.70
2018-03-02T05:04:35.859Z,19.77
2018-03-02T05:07:02.462Z,17.13
2018-03-02T05:09:29.066Z,18.75
2018-03-02T05:11:55.667Z,19.70
2018-03-02T05:14:22.274Z,19.53
2018-03-02T05:16:48.883Z,18.70
2018-03-02T05:19:15.486Z,18.40
2018-03-02T05:21:42.080Z,18.77
2018-03-02T05:24:08.707Z,20.87
2018-03-02T05:26:35.320Z,18.17
2018-03-02T05:29:01.915Z,17.53
2018-03-02T05:31:28.528Z,18.23
2018-03-02T05:33:55.115Z,19.00
2018-03-02T05:36:21.727Z,17.80
2018-03-02T05:38:48.380Z,20.10
2018-03-02T05:41:14.984Z,19.13
2018-03-02T05:43:41.618Z,20.63
2018-03-02T05:46:08.207Z,19.13
2018-03-02T05:48:34.828Z,20.20
2018-03-02T05:51:01.418Z,19.70
2018-03-02T05:53:28.020Z,17.43
2018-03-02T05:55:54.623Z,16.83
2018-03-02T05:58:21.239Z,19.80
2018-03-02T06:00:47.847Z,19.67
2018-03-02T06:03:14.451Z,20.10
2018-03-02T06:05:41.051Z,17.53
2018-03-02T06:08:07.651Z,19.73
2018-03-02T06:10:35.491Z,20.15
2018-03-02T06:13:02.092Z,17.67
2018-03-02T06:15:28.708Z,19.60
2018-03-02T06:17:55.379Z,20.25
2018-03-02T06:20:21.963Z,18.40
2018-03-02T06:22:48.567Z,19.63
2018-03-02T06:25:15.181Z,18.55
2018-03-02T06:27:41.766Z,18.30
2018-03-02T06:30:08.376Z,18.08
2018-03-02T06:32:35.020Z,18.67
2018-03-02T06:35:01.640Z,18.87
2018-03-02T06:37:28.239Z,21.07
2018-03-02T06:39:54.856Z,19.95
2018-03-02T06:42:21.459Z,20.87
2018-03-02T06:44:48.064Z,20.00
2018-03-02T06:47:14.683Z,19.90
2018-03-02T06:49:42.619Z,19.52
2018-03-02T06:52:09.315Z,19.00
2018-03-02T06:54:35.911Z,18.83
2018-03-02T06:57:02.586Z,19.60
2018-03-02T06:59:29.203Z,19.27
2018-03-02T07:01:55.802Z,19.00
2018-03-02T07:04:22.400Z,20.10
2018-03-02T07:06:49.008Z,19.40
2018-03-02T07:09:15.617Z,20.48
2018-03-02T07:11:42.211Z,18.20
2018-03-02T07:14:08.824Z,22.00
2018-03-02T07:16:35.439Z,19.75
2018-03-02T07:19:02.043Z,18.73
2018-03-02T07:21:28.684Z,19.90
2018-03-02T07:23:55.280Z,20.50
2018-03-02T07:26:21.893Z,20.00
2018-03-02T07:28:48.491Z,21.85
2018-03-02T07:31:15.144Z,19.90
2018-03-02T07:33:41.740Z,21.13
2018-03-02T07:36:08.351Z,20.10
2018-03-02T07:38:34.963Z,20.12
2018-03-02T07:41:01.575Z,21.62
2018-03-02T07:43:28.175Z,20.00
2018-03-02T07:45:54.784Z,18.05
2018-03-02T07:48:21.387Z,19.80
2018-03-02T07:50:48.003Z,18.12
2018-03-02T07:53:14.607Z,14.45
2018-03-02T07:55:41.204Z,19.80
2018-03-02T07:58:07.827Z,19.70
2018-03-02T08:00:34.435Z,19.23
2018-03-02T08:03:01.058Z,20.23
2018-03-02T08:05:27.649Z,19.67
2018-03-02T08:40:46.735Z,19.83
2018-03-02T08:43:13.374Z,19.95
2018-03-02T08:45:40.008Z,22.47
2018-03-02T08:48:06.628Z,19.50
2018-03-02T08:50:33.235Z,19.90
2018-03-02T08:52:59.851Z,18.37
2018-03-02T08:55:26.496Z,20.73
2018-03-02T08:57:53.064Z,19.37
2018-03-02T09:00:19.668Z,19.57
2018-03-02T09:02:46.299Z,19.60
2018-03-02T09:05:12.936Z,17.03
2018-03-02T09:07:39.532Z,19.83
2018-03-02T09:10:06.136Z,20.37
2018-03-02T09:12:32.733Z,21.77
2018-03-02T09:14:59.336Z,21.20
2018-03-02T09:17:25.940Z,20.37
2018-03-02T09:19:52.553Z,20.77
2018-03-02T09:22:19.162Z,18.50
2018-03-02T09:24:45.761Z,17.67
2018-03-02T09:27:12.371Z,20.23
2018-03-02T09:29:38.983Z,21.33
2018-03-02T09:32:05.586Z,20.20
2018-03-02T09:34:32.192Z,20.27
2018-03-02T09:36:58.794Z,19.70
2018-03-02T09:39:25.400Z,19.47
2018-03-02T09:41:52.008Z,19.77
2018-03-02T09:44:18.618Z,20.93
2018-03-02T09:46:45.224Z,21.00
2018-03-02T09:49:11.837Z,18.03
2018-03-02T09:51:38.437Z,19.77
2018-03-02T09:54:05.033Z,19.60
2018-03-02T09:56:31.655Z,21.03
2018-03-02T09:58:58.268Z,19.70
2018-03-02T10:01:25.220Z,19.93
2018-03-02T10:03:51.822Z,19.73
2018-03-02T10:06:18.422Z,21.37
2018-03-02T10:08:45.032Z,15.30
2018-03-02T10:11:11.631Z,18.80
2018-03-02T10:13:38.240Z,18.93
2018-03-02T10:16:04.836Z,19.80
2018-03-02T10:18:31.436Z,20.83
2018-03-02T10:20:58.045Z,20.80
2018-03-02T10:23:24.655Z,20.70
2018-03-02T10:25:51.276Z,20.27
2018-03-02T10:28:17.875Z,19.70
2018-03-02T10:30:44.507Z,21.07
2018-03-02T10:33:11.095Z,19.33
2018-03-02T10:35:37.711Z,21.93
2018-03-02T10:38:04.311Z,19.60
2018-03-02T10:40:30.920Z,20.30
2018-03-02T10:42:57.516Z,25.73
2018-03-02T10:45:24.115Z,20.23
2018-03-02T10:47:50.736Z,20.77
2018-03-02T10:50:17.341Z,21.12
2018-03-02T10:52:43.946Z,19.20
2018-03-02T10:55:10.547Z,19.80
2018-03-02T10:57:37.144Z,21.40
2018-03-02T11:00:03.752Z,20.50
2018-03-02T11:02:30.356Z,20.50
2018-03-02T11:05:02.758Z,20.63
2018-03-02T11:07:29.355Z,22.20
2018-03-02T11:09:55.973Z,21.10
2018-03-02T11:12:22.576Z,19.03
2018-03-02T11:14:49.176Z,20.37
2018-03-02T11:17:15.784Z,20.40
2018-03-02T11:19:42.379Z,20.20
2018-03-02T11:22:08.993Z,20.33
2018-03-02T11:24:35.597Z,21.27
2018-03-02T11:27:02.220Z,23.40
2018-03-02T11:29:28.816Z,21.00
2018-03-02T11:31:55.441Z,20.93
2018-03-02T11:34:22.060Z,20.97
2018-03-02T11:36:48.656Z,20.90
2018-03-02T11:39:15.273Z,20.10
2018-03-02T11:41:41.875Z,19.83
2018-03-02T11:44:08.501Z,20.40
2018-03-02T11:46:35.103Z,20.80
2018-03-02T11:49:01.717Z,14.47
2018-03-02T11:51:28.315Z,20.27
2018-03-02T11:53:54.913Z,20.70
2018-03-02T11:56:21.521Z,20.93
2018-03-02T11:58:48.116Z,22.07
2018-03-02T12:01:14.735Z,19.50
2018-03-02T12:03:41.344Z,20.00
2018-03-02T12:06:07.968Z,19.90
2018-03-02T12:08:34.572Z,20.43
2018-03-02T12:11:01.176Z,21.17
2018-03-02T12:13:27.785Z,19.77
2018-03-02T12:15:54.384Z,19.63
2018-03-02T12:18:21.000Z,20.17
2018-03-02T12:20:47.600Z,20.03
2018-03-02T12:23:14.224Z,20.73
2018-03-02T12:25:40.832Z,20.10
2018-03-02T12:28:07.428Z,19.60
2018-03-02T12:30:34.037Z,20.40
2018-03-02T12:33:00.636Z,20.27
2018-03-02T12:35:27.244Z,20.87
2018-03-02T12:37:53.848Z,19.20
2018-03-02T12:40:20.481Z,19.70
2018-03-02T12:42:47.083Z,20.23
2018-03-02T12:45:13.691Z,19.45
2018-03-02T12:47:40.300Z,18.33
2018-03-02T12:50:06.905Z,18.77
2018-03-02T12:52:33.523Z,20.10
2018-03-02T12:55:00.125Z,20.37
2018-03-02T12:57:26.744Z,20.50
2018-03-02T12:59:53.349Z,19.50
2018-03-02T13:02:19.950Z,20.17
2018-03-02T13:04:46.556Z,19.60
2018-03-02T13:07:13.152Z,20.87
2018-03-02T13:09:39.768Z,20.40
2018-03-02T13:12:06.376Z,20.83
2018-03-02T13:14:32.975Z,19.37
2018-03-02T13:16:59.600Z,19.40
2018-03-02T13:19:26.191Z,21.03
2018-03-02T13:21:52.804Z,20.90
2018-03-02T13:24:19.396Z,19.47
2018-03-02T13:26:51.935Z,20.10
2018-03-02T13:29:18.541Z,19.90
2018-03-02T13:31:45.144Z,22.07
2018-03-02T13:34:17.657Z,20.63
2018-03-02T13:36:44.252Z,20.03
2018-03-02T13:39:10.862Z,18.47
2018-03-02T13:41:43.203Z,20.43
2018-03-02T13:44:09.804Z,20.30
2018-03-02T13:46:36.409Z,20.43
2018-03-02T13:49:09.081Z,19.50
2018-03-02T13:51:35.721Z,20.07
2018-03-02T13:54:02.328Z,20.43
2018-03-02T13:56:34.921Z,20.57
2018-03-02T13:59:02.335Z,22.53
2018-03-02T14:01:30.282Z,20.73
2018-03-02T14:04:02.844Z,21.17
2018-03-02T14:06:29.442Z,20.57
2018-03-02T14:08:56.042Z,19.27
2018-03-02T14:11:22.923Z,20.80
2018-03-02T14:13:49.534Z,21.00
2018-03-02T14:16:16.129Z,19.47
2018-03-02T14:18:42.736Z,21.70
2018-03-02T14:21:09.356Z,19.40
2018-03-02T14:23:35.976Z,20.40
2018-03-02T14:26:02.592Z,21.50
2018-03-02T14:28:29.206Z,22.17
2018-03-02T14:30:55.800Z,20.63
2018-03-02T14:33:22.469Z,22.63
2018-03-02T14:35:49.104Z,21.13
2018-03-02T14:38:15.730Z,20.80
2018-03-02T14:40:42.333Z,21.40
2018-03-02T14:43:08.933Z,21.13
2018-03-02T14:45:35.536Z,22.33
2018-03-02T14:48:02.148Z,21.53
2018-03-02T14:50:28.751Z,20.30
2018-03-02T14:52:55.390Z,22.43
2018-03-02T14:55:21.988Z,21.23
2018-03-02T14:57:48.588Z,20.90
2018-03-02T15:00:15.191Z,21.80
2018-03-02T15:02:41.792Z,21.50
2018-03-02T15:05:08.392Z,23.40
2018-03-02T15:07:35.060Z,22.20
2018-03-02T15:10:01.645Z,21.77
2018-03-02T15:12:28.237Z,21.73
2018-03-02T15:14:54.844Z,23.17
2018-03-02T15:17:21.452Z,22.17
2018-03-02T15:19:48.072Z,22.70
2018-03-02T15:22:14.667Z,22.10
2018-03-02T15:24:41.276Z,22.63
2018-03-02T15:27:07.880Z,21.50
2018-03-02T15:29:34.479Z,21.73
2018-03-02T15:32:01.099Z,21.43
2018-03-02T15:34:27.700Z,21.23
2018-03-02T15:36:54.296Z,20.77
2018-03-02T15:39:20.915Z,24.10
2018-03-02T15:41:47.507Z,22.27
2018-03-02T15:44:14.114Z,21.50
2018-03-02T15:46:40.741Z,22.87
2018-03-02T15:49:07.356Z,24.30
2018-03-02T15:51:33.960Z,22.17
2018-03-02T15:54:00.563Z,22.70
2018-03-02T15:56:27.168Z,23.30
2018-03-02T15:58:53.770Z,23.83
2018-03-02T16:01:20.376Z,22.60
2018-03-02T16:03:46.980Z,22.90
2018-03-02T16:06:13.611Z,22.70
2018-03-02T16:08:40.204Z,22.97
2018-03-02T16:11:06.805Z,26.20
2018-03-02T16:13:33.432Z,23.53
2018-03-02T16:16:00.032Z,23.43
2018-03-02T16:18:26.631Z,23.50
2018-03-02T16:20:53.228Z,22.83
2018-03-02T16:23:19.876Z,21.90
2018-03-02T16:25:46.476Z,22.30
2018-03-02T16:28:13.085Z,24.10
2018-03-02T16:30:39.689Z,24.03
2018-03-02T16:33:06.289Z,23.07
2018-03-02T16:35:32.895Z,24.57
2018-03-02T16:37:59.505Z,24.50
2018-03-02T16:40:26.112Z,24.37
2018-03-02T16:42:52.732Z,22.13
2018-03-02T16:45:19.403Z,44.73
2018-03-02T16:47:45.997Z,26.43
2018-03-02T16:50:12.603Z,23.17
2018-03-02T16:52:39.208Z,22.83
2018-03-02T16:55:05.809Z,25.07
2018-03-02T16:57:32.418Z,22.70
2018-03-02T16:59:59.028Z,22.30
2018-03-02T17:02:25.637Z,23.20
2018-03-02T17:04:52.232Z,23.03
2018-03-02T17:07:18.839Z,23.30
2018-03-02T17:09:45.443Z,22.87
2018-03-02T17:12:12.048Z,24.63
2018-03-02T17:14:38.661Z,22.40
2018-03-02T17:17:05.265Z,22.23
2018-03-02T17:19:31.894Z,23.07
2018-03-02T17:21:58.494Z,22.70
2018-03-02T17:24:25.111Z,22.67
2018-03-02T17:26:51.720Z,23.07
2018-03-02T17:29:18.328Z,22.37
2018-03-02T17:31:44.920Z,22.67
2018-03-02T17:34:11.524Z,22.00
2018-03-02T17:36:38.125Z,29.00
2018-03-02T17:39:04.744Z,24.00
2018-03-02T17:41:31.377Z,22.90
2018-03-02T17:43:57.993Z,24.77
2018-03-02T17:46:24.588Z,25.70
2018-03-02T17:48:51.188Z,24.43
2018-03-02T17:51:17.795Z,24.27
2018-03-02T17:53:44.399Z,23.90
2018-03-02T17:56:11.004Z,24.40
2018-03-02T17:58:37.603Z,24.93
2018-03-02T18:01:04.212Z,24.20
2018-03-02T18:03:30.820Z,27.37
2018-03-02T18:05:57.425Z,24.77
2018-03-02T18:08:24.024Z,31.40
2018-03-02T18:10:50.624Z,23.97
2018-03-02T18:13:17.227Z,24.13
2018-03-02T18:15:43.837Z,26.40
2018-03-02T18:18:10.432Z,24.23
2018-03-02T18:20:37.044Z,22.93
2018-03-02T18:23:03.653Z,23.60
2018-03-02T18:25:30.265Z,26.43
2018-03-02T18:27:58.743Z,24.10
2018-03-02T18:30:25.349Z,23.70
2018-03-02T18:32:51.985Z,24.70
2018-03-02T18:35:18.586Z,24.90
2018-03-02T18:37:45.180Z,25.93
2018-03-02T18:40:11.794Z,26.03
2018-03-02T18:42:38.388Z,27.37
2018-03-02T18:45:05.021Z,25.90
2018-03-02T18:47:31.622Z,26.97
2018-03-02T18:49:58.224Z,26.73
2018-03-02T18:52:24.824Z,25.63
2018-03-02T18:54:51.469Z,27.10
2018-03-02T18:57:18.035Z,27.23
2018-03-02T18:59:44.640Z,23.17
2018-03-02T19:02:11.240Z,27.20
2018-03-02T19:04:37.849Z,29.20
2018-03-02T19:07:04.448Z,26.07
2018-03-02T19:09:31.080Z,30.37
2018-03-02T19:11:57.729Z,28.57
2018-03-02T19:14:24.335Z,28.30
2018-03-02T19:16:50.940Z,30.13
2018-03-02T19:19:17.552Z,25.40
2018-03-02T19:21:44.173Z,28.17
2018-03-02T19:24:10.789Z,29.53
2018-03-02T19:26:37.397Z,28.47
2018-03-02T19:29:14.609Z,30.23
2018-03-02T19:31:41.200Z,30.53
2018-03-02T19:34:07.808Z,29.50
2018-03-02T19:36:34.428Z,28.33
2018-03-02T19:39:01.028Z,38.40
2018-03-02T19:41:27.631Z,23.20
2018-03-02T19:43:54.930Z,29.43
2018-03-02T19:46:21.532Z,29.60
2018-03-02T19:48:48.150Z,30.47
2018-03-02T19:51:14.930Z,31.10
2018-03-02T19:53:41.524Z,34.37
2018-03-02T19:56:08.126Z,29.73
2018-03-02T19:58:34.736Z,35.23
2018-03-02T20:01:01.335Z,31.43
2018-03-02T20:03:27.939Z,35.03
2018-03-02T20:05:54.540Z,33.70
2018-03-02T20:08:21.148Z,32.03
2018-03-02T20:10:47.748Z,34.00
2018-03-02T20:13:14.613Z,40.10
2018-03-02T20:15:41.210Z,32.17
2018-03-02T20:18:07.849Z,39.60
2018-03-02T20:20:34.704Z,34.07
2018-03-02T20:23:02.252Z,32.70
2018-03-02T20:25:28.830Z,36.10
2018-03-02T20:27:55.436Z,33.10
2018-03-02T20:30:22.887Z,35.30
2018-03-02T20:32:49.512Z,35.10
2018-03-02T20:35:16.169Z,36.00
2018-03-02T20:37:42.753Z,36.87
2018-03-02T20:40:09.359Z,36.07
2018-03-02T20:42:35.964Z,35.63
2018-03-02T22:06:58.942Z,40.80
2018-03-02T22:09:25.649Z,38.23
2018-03-02T22:11:52.249Z,37.70
2018-03-02T22:14:18.861Z,39.37
2018-03-02T22:16:45.464Z,38.60
2018-03-02T22:19:12.068Z,42.90
2018-03-02T22:21:38.684Z,39.90
2018-03-02T22:24:05.306Z,40.27
2018-03-02T22:26:31.892Z,36.80
2018-03-02T22:28:58.525Z,41.10
2018-03-02T22:31:25.124Z,47.70
2018-03-02T22:33:51.736Z,40.50
2018-03-02T22:36:18.356Z,37.50
2018-03-02T22:38:44.956Z,35.20
2018-03-02T22:41:11.590Z,38.97
2018-03-02T22:43:38.217Z,38.60
2018-03-02T22:46:04.816Z,38.17
2018-03-02T22:48:31.415Z,40.30
2018-03-02T22:50:58.030Z,44.10
2018-03-02T22:53:24.632Z,44.60
2018-03-02T22:55:51.232Z,39.83
2018-03-02T22:58:17.889Z,39.10
2018-03-02T23:00:44.475Z,40.87
2018-03-02T23:03:11.074Z,39.30
2018-03-02T23:05:37.700Z,38.53
2018-03-02T23:08:04.303Z,42.33
2018-03-02T23:10:30.913Z,40.47
2018-03-02T23:12:57.537Z,39.10
2018-03-02T23:15:24.121Z,36.80
2018-03-02T23:17:50.724Z,39.80
2018-03-02T23:20:17.340Z,40.90
2018-03-02T23:22:43.936Z,39.97
2018-03-02T23:25:10.537Z,39.93
2018-03-02T23:27:37.165Z,38.50
2018-03-02T23:30:03.812Z,38.07
2018-03-02T23:32:30.416Z,38.27
2018-03-02T23:34:57.032Z,35.90
2018-03-02T23:37:23.628Z,37.40
2018-03-02T23:39:50.237Z,39.30
2018-03-02T23:42:16.836Z,39.27
2018-03-02T23:44:43.440Z,37.97
2018-03-02T23:47:10.041Z,38.90
2018-03-02T23:49:36.932Z,39.43
2018-03-02T23:52:03.515Z,40.60
2018-03-02T23:54:30.113Z,39.50
2018-03-02T23:56:56.728Z,38.43
2018-03-02T23:59:23.316Z,37.57
